Terminal Aerodrome Forecast
Issued by NWS

Home | Current Version | Previous Version | Text Only | Print | Product List | Glossary On
Versions: 1 2 3 4 5 6 7 8 9 10 11 12 13 14 15 16 17 18 19
000
FTUS43 KDTX 212000 AAA
TAFDET
TAF AMD
KDET 212010Z 2120/2218 26015G25KT P6SM -SHRA SCT015 BKN025 OVC050
     FM212100 35015G26KT 6SM SHRA BKN015 OVC025
     FM220000 33012KT P6SM BKN020
     FM221400 33011KT P6SM BKN030=

USA.gov is the U.S. government's official web portal to all federal, state and local government web resources and services.